sensor_id;sensor_type;location;lat;lon;timestamp;P1;durP1;ratioP1;P2;durP2;ratioP2
52608;SDS011;38503;48.544;12.142;2023-02-01T00:01:10;8.23;;;4.80;;
52608;SDS011;38503;48.544;12.142;2023-02-01T00:03:36;8.27;;;4.73;;
52608;SDS011;38503;48.544;12.142;2023-02-01T00:06:03;7.20;;;4.50;;
52608;SDS011;38503;48.544;12.142;2023-02-01T00:08:30;6.97;;;4.87;;
52608;SDS011;38503;48.544;12.142;2023-02-01T00:11:02;6.60;;;4.73;;
52608;SDS011;38503;48.544;12.142;2023-02-01T00:13:32;6.07;;;4.00;;
52608;SDS011;38503;48.544;12.142;2023-02-01T00:18:38;10.60;;;4.87;;
52608;SDS011;38503;48.544;12.142;2023-02-01T00:21:05;5.93;;;4.60;;
52608;SDS011;38503;48.544;12.142;2023-02-01T00:23:33;6.40;;;4.60;;
52608;SDS011;38503;48.544;12.142;2023-02-01T00:26:01;5.77;;;4.73;;
52608;SDS011;38503;48.544;12.142;2023-02-01T00:28:29;7.53;;;4.60;;
52608;SDS011;38503;48.544;12.142;2023-02-01T00:30:57;7.07;;;4.50;;
52608;SDS011;38503;48.544;12.142;2023-02-01T00:33:25;7.50;;;5.10;;
52608;SDS011;38503;48.544;12.142;2023-02-01T00:35:59;6.20;;;4.73;;
52608;SDS011;38503;48.544;12.142;2023-02-01T00:38:28;7.33;;;4.53;;
52608;SDS011;38503;48.544;12.142;2023-02-01T00:41:29;7.47;;;4.57;;
52608;SDS011;38503;48.544;12.142;2023-02-01T00:43:49;6.87;;;4.60;;
52608;SDS011;38503;48.544;12.142;2023-02-01T00:46:17;7.40;;;4.70;;
52608;SDS011;38503;48.544;12.142;2023-02-01T00:48:45;7.00;;;4.67;;
52608;SDS011;38503;48.544;12.142;2023-02-01T00:51:13;7.73;;;5.10;;
52608;SDS011;38503;48.544;12.142;2023-02-01T00:53:41;6.53;;;4.77;;
52608;SDS011;38503;48.544;12.142;2023-02-01T00:56:08;9.97;;;5.80;;
52608;SDS011;38503;48.544;12.142;2023-02-01T00:58:35;6.70;;;4.67;;
52608;SDS011;38503;48.544;12.142;2023-02-01T01:01:04;7.07;;;4.87;;
52608;SDS011;38503;48.544;12.142;2023-02-01T01:03:44;7.67;;;5.27;;
52608;SDS011;38503;48.544;12.142;2023-02-01T01:06:28;7.50;;;4.90;;
52608;SDS011;38503;48.544;12.142;2023-02-01T01:09:01;7.93;;;4.90;;
52608;SDS011;38503;48.544;12.142;2023-02-01T01:11:31;5.97;;;4.60;;
52608;SDS011;38503;48.544;12.142;2023-02-01T01:14:00;8.20;;;4.60;;
52608;SDS011;38503;48.544;12.142;2023-02-01T01:16:27;5.70;;;4.77;;
52608;SDS011;38503;48.544;12.142;2023-02-01T01:18:55;6.53;;;4.70;;
52608;SDS011;38503;48.544;12.142;2023-02-01T01:21:23;7.40;;;4.67;;
52608;SDS011;38503;48.544;12.142;2023-02-01T01:23:50;9.00;;;5.23;;
52608;SDS011;38503;48.544;12.142;2023-02-01T01:26:18;5.40;;;4.40;;
52608;SDS011;38503;48.544;12.142;2023-02-01T01:28:47;7.00;;;5.03;;
52608;SDS011;38503;48.544;12.142;2023-02-01T01:31:15;8.40;;;5.60;;
52608;SDS011;38503;48.544;12.142;2023-02-01T01:33:43;5.93;;;4.93;;
52608;SDS011;38503;48.544;12.142;2023-02-01T01:36:13;6.63;;;5.17;;
52608;SDS011;38503;48.544;12.142;2023-02-01T01:38:40;6.40;;;4.83;;
52608;SDS011;38503;48.544;12.142;2023-02-01T01:41:08;9.87;;;5.37;;
52608;SDS011;38503;48.544;12.142;2023-02-01T01:43:48;6.60;;;4.93;;
52608;SDS011;38503;48.544;12.142;2023-02-01T01:46:24;6.87;;;4.87;;
52608;SDS011;38503;48.544;12.142;2023-02-01T01:49:05;6.70;;;5.50;;
52608;SDS011;38503;48.544;12.142;2023-02-01T01:51:54;8.33;;;5.77;;
52608;SDS011;38503;48.544;12.142;2023-02-01T01:54:26;7.67;;;5.10;;
52608;SDS011;38503;48.544;12.142;2023-02-01T01:57:00;7.60;;;5.07;;
52608;SDS011;38503;48.544;12.142;2023-02-01T01:59:31;8.00;;;5.23;;
52608;SDS011;38503;48.544;12.142;2023-02-01T02:02:02;9.63;;;5.20;;
52608;SDS011;38503;48.544;12.142;2023-02-01T02:04:28;6.27;;;4.90;;
52608;SDS011;38503;48.544;12.142;2023-02-01T02:06:57;7.43;;;4.80;;
52608;SDS011;38503;48.544;12.142;2023-02-01T02:09:31;7.60;;;5.27;;
52608;SDS011;38503;48.544;12.142;2023-02-01T02:11:58;7.00;;;5.43;;
52608;SDS011;38503;48.544;12.142;2023-02-01T02:14:24;6.43;;;4.40;;
52608;SDS011;38503;48.544;12.142;2023-02-01T02:19:35;6.67;;;5.27;;
52608;SDS011;38503;48.544;12.142;2023-02-01T02:28:43;6.13;;;4.57;;
52608;SDS011;38503;48.544;12.142;2023-02-01T02:42:21;9.30;;;5.50;;
52608;SDS011;38503;48.544;12.142;2023-02-01T02:45:29;6.67;;;4.83;;
52608;SDS011;38503;48.544;12.142;2023-02-01T02:48:25;7.13;;;5.30;;
52608;SDS011;38503;48.544;12.142;2023-02-01T02:51:07;8.63;;;5.27;;
52608;SDS011;38503;48.544;12.142;2023-02-01T02:54:07;11.23;;;5.40;;
52608;SDS011;38503;48.544;12.142;2023-02-01T02:56:57;6.00;;;5.33;;
52608;SDS011;38503;48.544;12.142;2023-02-01T02:59:45;9.13;;;5.50;;
52608;SDS011;38503;48.544;12.142;2023-02-01T03:02:32;6.83;;;5.30;;
52608;SDS011;38503;48.544;12.142;2023-02-01T03:05:19;7.23;;;5.80;;
52608;SDS011;38503;48.544;12.142;2023-02-01T03:07:53;9.13;;;6.03;;
52608;SDS011;38503;48.544;12.142;2023-02-01T03:16:21;9.10;;;6.47;;
52608;SDS011;38503;48.544;12.142;2023-02-01T03:19:03;7.57;;;5.80;;
52608;SDS011;38503;48.544;12.142;2023-02-01T03:21:40;6.87;;;5.90;;
52608;SDS011;38503;48.544;12.142;2023-02-01T03:24:12;7.53;;;5.57;;
52608;SDS011;38503;48.544;12.142;2023-02-01T03:26:43;6.93;;;5.87;;
52608;SDS011;38503;48.544;12.142;2023-02-01T03:29:16;9.63;;;6.50;;
52608;SDS011;38503;48.544;12.142;2023-02-01T03:31:47;8.00;;;5.80;;
52608;SDS011;38503;48.544;12.142;2023-02-01T03:34:14;6.40;;;5.43;;
52608;SDS011;38503;48.544;12.142;2023-02-01T03:36:44;8.07;;;5.67;;
52608;SDS011;38503;48.544;12.142;2023-02-01T03:39:15;8.90;;;6.40;;
52608;SDS011;38503;48.544;12.142;2023-02-01T03:41:58;9.13;;;5.80;;
52608;SDS011;38503;48.544;12.142;2023-02-01T03:44:30;8.27;;;5.67;;
52608;SDS011;38503;48.544;12.142;2023-02-01T03:49:41;6.97;;;5.87;;
52608;SDS011;38503;48.544;12.142;2023-02-01T03:52:13;8.57;;;5.77;;
52608;SDS011;38503;48.544;12.142;2023-02-01T03:54:44;10.07;;;6.40;;
52608;SDS011;38503;48.544;12.142;2023-02-01T03:57:13;7.73;;;5.90;;
52608;SDS011;38503;48.544;12.142;2023-02-01T03:59:46;7.70;;;5.83;;
52608;SDS011;38503;48.544;12.142;2023-02-01T04:02:14;8.07;;;6.20;;
52608;SDS011;38503;48.544;12.142;2023-02-01T04:04:41;7.57;;;5.63;;
52608;SDS011;38503;48.544;12.142;2023-02-01T04:07:08;8.13;;;6.07;;
52608;SDS011;38503;48.544;12.142;2023-02-01T04:09:35;8.80;;;6.77;;
52608;SDS011;38503;48.544;12.142;2023-02-01T04:12:02;10.37;;;6.67;;
52608;SDS011;38503;48.544;12.142;2023-02-01T04:14:29;11.90;;;6.73;;
52608;SDS011;38503;48.544;12.142;2023-02-01T04:16:55;11.50;;;7.67;;
52608;SDS011;38503;48.544;12.142;2023-02-01T04:19:24;10.40;;;6.50;;
52608;SDS011;38503;48.544;12.142;2023-02-01T04:21:51;8.37;;;6.27;;
52608;SDS011;38503;48.544;12.142;2023-02-01T04:24:18;9.77;;;6.37;;
52608;SDS011;38503;48.544;12.142;2023-02-01T04:26:45;8.00;;;6.53;;
52608;SDS011;38503;48.544;12.142;2023-02-01T04:29:12;11.90;;;6.70;;
52608;SDS011;38503;48.544;12.142;2023-02-01T04:31:39;8.53;;;7.17;;
52608;SDS011;38503;48.544;12.142;2023-02-01T04:34:06;7.57;;;6.23;;
52608;SDS011;38503;48.544;12.142;2023-02-01T04:36:33;8.70;;;6.77;;
52608;SDS011;38503;48.544;12.142;2023-02-01T04:39:00;11.30;;;8.63;;
52608;SDS011;38503;48.544;12.142;2023-02-01T04:41:27;9.00;;;7.50;;
52608;SDS011;38503;48.544;12.142;2023-02-01T04:43:54;8.77;;;6.43;;
52608;SDS011;38503;48.544;12.142;2023-02-01T04:46:20;12.07;;;8.20;;
52608;SDS011;38503;48.544;12.142;2023-02-01T04:48:48;9.90;;;7.23;;
52608;SDS011;38503;48.544;12.142;2023-02-01T04:51:14;11.70;;;7.30;;
52608;SDS011;38503;48.544;12.142;2023-02-01T04:53:41;9.90;;;7.53;;
52608;SDS011;38503;48.544;12.142;2023-02-01T04:56:08;13.57;;;8.33;;
52608;SDS011;38503;48.544;12.142;2023-02-01T04:58:35;8.33;;;6.20;;
52608;SDS011;38503;48.544;12.142;2023-02-01T05:01:03;10.30;;;6.57;;
52608;SDS011;38503;48.544;12.142;2023-02-01T05:03:33;9.63;;;7.17;;
52608;SDS011;38503;48.544;12.142;2023-02-01T05:06:01;9.30;;;6.70;;
52608;SDS011;38503;48.544;12.142;2023-02-01T05:08:30;9.93;;;6.73;;
52608;SDS011;38503;48.544;12.142;2023-02-01T05:10:58;9.87;;;6.90;;
52608;SDS011;38503;48.544;12.142;2023-02-01T05:13:25;10.17;;;7.13;;
52608;SDS011;38503;48.544;12.142;2023-02-01T05:16:10;8.73;;;6.60;;
52608;SDS011;38503;48.544;12.142;2023-02-01T05:18:37;8.63;;;6.53;;
52608;SDS011;38503;48.544;12.142;2023-02-01T05:21:04;11.33;;;7.10;;
52608;SDS011;38503;48.544;12.142;2023-02-01T05:23:31;9.10;;;6.70;;
52608;SDS011;38503;48.544;12.142;2023-02-01T05:25:58;10.83;;;6.87;;
52608;SDS011;38503;48.544;12.142;2023-02-01T05:28:27;8.60;;;6.20;;
52608;SDS011;38503;48.544;12.142;2023-02-01T05:30:54;9.07;;;6.53;;
52608;SDS011;38503;48.544;12.142;2023-02-01T05:33:21;9.33;;;6.63;;
52608;SDS011;38503;48.544;12.142;2023-02-01T05:35:48;8.20;;;6.33;;
52608;SDS011;38503;48.544;12.142;2023-02-01T05:38:16;8.57;;;6.20;;
52608;SDS011;38503;48.544;12.142;2023-02-01T05:40:43;9.27;;;5.93;;
52608;SDS011;38503;48.544;12.142;2023-02-01T05:43:15;7.57;;;5.47;;
52608;SDS011;38503;48.544;12.142;2023-02-01T05:45:42;6.80;;;5.50;;
52608;SDS011;38503;48.544;12.142;2023-02-01T05:48:09;6.67;;;5.33;;
52608;SDS011;38503;48.544;12.142;2023-02-01T05:50:36;7.27;;;5.10;;
52608;SDS011;38503;48.544;12.142;2023-02-01T05:53:02;7.27;;;5.23;;
52608;SDS011;38503;48.544;12.142;2023-02-01T05:55:29;7.33;;;5.20;;
52608;SDS011;38503;48.544;12.142;2023-02-01T05:57:56;8.67;;;5.50;;
52608;SDS011;38503;48.544;12.142;2023-02-01T06:00:24;8.40;;;5.50;;
52608;SDS011;38503;48.544;12.142;2023-02-01T06:02:51;6.13;;;4.77;;
52608;SDS011;38503;48.544;12.142;2023-02-01T06:05:18;6.67;;;5.07;;
52608;SDS011;38503;48.544;12.142;2023-02-01T06:07:45;7.70;;;5.03;;
52608;SDS011;38503;48.544;12.142;2023-02-01T06:10:12;7.13;;;5.17;;
52608;SDS011;38503;48.544;12.142;2023-02-01T06:12:39;6.67;;;5.30;;
52608;SDS011;38503;48.544;12.142;2023-02-01T06:15:06;5.60;;;4.97;;
52608;SDS011;38503;48.544;12.142;2023-02-01T06:17:34;6.07;;;5.20;;
52608;SDS011;38503;48.544;12.142;2023-02-01T06:20:00;6.90;;;5.33;;
52608;SDS011;38503;48.544;12.142;2023-02-01T06:22:28;7.80;;;5.43;;
52608;SDS011;38503;48.544;12.142;2023-02-01T06:24:54;6.03;;;4.57;;
52608;SDS011;38503;48.544;12.142;2023-02-01T06:27:21;6.43;;;5.23;;
52608;SDS011;38503;48.544;12.142;2023-02-01T06:29:48;6.83;;;5.00;;
52608;SDS011;38503;48.544;12.142;2023-02-01T06:32:14;5.33;;;4.70;;
52608;SDS011;38503;48.544;12.142;2023-02-01T06:34:43;6.20;;;4.60;;
52608;SDS011;38503;48.544;12.142;2023-02-01T06:37:10;6.43;;;5.07;;
52608;SDS011;38503;48.544;12.142;2023-02-01T06:39:37;7.00;;;5.40;;
52608;SDS011;38503;48.544;12.142;2023-02-01T06:42:04;6.40;;;5.20;;
52608;SDS011;38503;48.544;12.142;2023-02-01T06:44:31;7.93;;;5.30;;
52608;SDS011;38503;48.544;12.142;2023-02-01T06:46:57;6.57;;;4.87;;
52608;SDS011;38503;48.544;12.142;2023-02-01T06:49:24;6.37;;;4.77;;
52608;SDS011;38503;48.544;12.142;2023-02-01T06:51:51;6.50;;;4.87;;
52608;SDS011;38503;48.544;12.142;2023-02-01T06:54:18;7.63;;;5.00;;
52608;SDS011;38503;48.544;12.142;2023-02-01T06:56:45;6.93;;;5.00;;
52608;SDS011;38503;48.544;12.142;2023-02-01T06:59:12;6.43;;;5.30;;
52608;SDS011;38503;48.544;12.142;2023-02-01T07:01:42;8.90;;;5.17;;
52608;SDS011;38503;48.544;12.142;2023-02-01T07:04:10;6.67;;;5.27;;
52608;SDS011;38503;48.544;12.142;2023-02-01T07:06:40;6.80;;;5.00;;
52608;SDS011;38503;48.544;12.142;2023-02-01T07:09:07;6.80;;;5.20;;
52608;SDS011;38503;48.544;12.142;2023-02-01T07:11:34;6.37;;;5.50;;
52608;SDS011;38503;48.544;12.142;2023-02-01T07:14:01;9.87;;;5.20;;
52608;SDS011;38503;48.544;12.142;2023-02-01T07:16:28;7.60;;;5.10;;
52608;SDS011;38503;48.544;12.142;2023-02-01T07:18:55;7.87;;;5.97;;
52608;SDS011;38503;48.544;12.142;2023-02-01T07:21:22;7.63;;;5.17;;
52608;SDS011;38503;48.544;12.142;2023-02-01T07:23:48;6.73;;;5.07;;
52608;SDS011;38503;48.544;12.142;2023-02-01T07:26:15;8.83;;;5.60;;
52608;SDS011;38503;48.544;12.142;2023-02-01T07:28:42;8.07;;;5.17;;
52608;SDS011;38503;48.544;12.142;2023-02-01T07:31:13;5.93;;;4.83;;
52608;SDS011;38503;48.544;12.142;2023-02-01T07:33:44;5.87;;;4.43;;
52608;SDS011;38503;48.544;12.142;2023-02-01T07:36:12;5.90;;;4.80;;
52608;SDS011;38503;48.544;12.142;2023-02-01T07:38:40;7.47;;;4.67;;
52608;SDS011;38503;48.544;12.142;2023-02-01T07:41:08;7.90;;;3.93;;
52608;SDS011;38503;48.544;12.142;2023-02-01T07:43:35;6.57;;;4.60;;
52608;SDS011;38503;48.544;12.142;2023-02-01T07:46:05;13.07;;;4.97;;
52608;SDS011;38503;48.544;12.142;2023-02-01T07:48:33;4.67;;;4.17;;
52608;SDS011;38503;48.544;12.142;2023-02-01T07:51:01;6.47;;;4.43;;
52608;SDS011;38503;48.544;12.142;2023-02-01T07:53:30;6.23;;;4.00;;
52608;SDS011;38503;48.544;12.142;2023-02-01T07:55:58;4.90;;;4.00;;
52608;SDS011;38503;48.544;12.142;2023-02-01T07:58:25;4.23;;;3.83;;
52608;SDS011;38503;48.544;12.142;2023-02-01T08:00:52;9.00;;;4.80;;
52608;SDS011;38503;48.544;12.142;2023-02-01T08:03:41;5.27;;;3.80;;
52608;SDS011;38503;48.544;12.142;2023-02-01T08:06:08;5.60;;;3.93;;
52608;SDS011;38503;48.544;12.142;2023-02-01T08:08:35;5.37;;;4.13;;
52608;SDS011;38503;48.544;12.142;2023-02-01T08:11:03;11.10;;;4.00;;
52608;SDS011;38503;48.544;12.142;2023-02-01T08:13:31;5.73;;;4.80;;
52608;SDS011;38503;48.544;12.142;2023-02-01T08:16:01;5.63;;;4.57;;
52608;SDS011;38503;48.544;12.142;2023-02-01T08:18:30;6.90;;;4.00;;
52608;SDS011;38503;48.544;12.142;2023-02-01T08:21:01;5.50;;;4.60;;
52608;SDS011;38503;48.544;12.142;2023-02-01T08:23:36;6.80;;;5.13;;
52608;SDS011;38503;48.544;12.142;2023-02-01T08:26:14;5.67;;;3.87;;
52608;SDS011;38503;48.544;12.142;2023-02-01T08:28:48;7.97;;;4.20;;
52608;SDS011;38503;48.544;12.142;2023-02-01T08:31:19;6.00;;;4.60;;
52608;SDS011;38503;48.544;12.142;2023-02-01T08:33:48;7.83;;;4.67;;
52608;SDS011;38503;48.544;12.142;2023-02-01T08:36:17;6.40;;;4.47;;
52608;SDS011;38503;48.544;12.142;2023-02-01T08:38:45;6.50;;;4.97;;
52608;SDS011;38503;48.544;12.142;2023-02-01T08:41:14;6.90;;;4.87;;
52608;SDS011;38503;48.544;12.142;2023-02-01T08:43:45;9.23;;;5.43;;
52608;SDS011;38503;48.544;12.142;2023-02-01T08:46:14;5.37;;;4.43;;
52608;SDS011;38503;48.544;12.142;2023-02-01T08:48:42;7.27;;;4.60;;
52608;SDS011;38503;48.544;12.142;2023-02-01T08:51:10;5.53;;;4.57;;
52608;SDS011;38503;48.544;12.142;2023-02-01T08:53:38;5.63;;;4.43;;
52608;SDS011;38503;48.544;12.142;2023-02-01T08:56:09;6.37;;;4.67;;
52608;SDS011;38503;48.544;12.142;2023-02-01T08:58:37;8.50;;;5.40;;
52608;SDS011;38503;48.544;12.142;2023-02-01T09:01:05;6.80;;;4.80;;
52608;SDS011;38503;48.544;12.142;2023-02-01T09:03:34;7.17;;;4.67;;
52608;SDS011;38503;48.544;12.142;2023-02-01T09:06:05;4.67;;;4.03;;
52608;SDS011;38503;48.544;12.142;2023-02-01T09:08:34;7.20;;;4.60;;
52608;SDS011;38503;48.544;12.142;2023-02-01T09:11:04;7.90;;;4.60;;
52608;SDS011;38503;48.544;12.142;2023-02-01T09:13:32;6.67;;;4.23;;
52608;SDS011;38503;48.544;12.142;2023-02-01T09:16:02;4.83;;;4.00;;
52608;SDS011;38503;48.544;12.142;2023-02-01T09:18:29;5.27;;;4.20;;
52608;SDS011;38503;48.544;12.142;2023-02-01T09:20:56;4.90;;;3.87;;
52608;SDS011;38503;48.544;12.142;2023-02-01T09:23:23;5.57;;;3.97;;
52608;SDS011;38503;48.544;12.142;2023-02-01T09:25:50;4.23;;;3.47;;
52608;SDS011;38503;48.544;12.142;2023-02-01T09:28:18;6.47;;;3.57;;
52608;SDS011;38503;48.544;12.142;2023-02-01T09:30:45;3.47;;;2.90;;
52608;SDS011;38503;48.544;12.142;2023-02-01T09:33:12;5.40;;;3.77;;
52608;SDS011;38503;48.544;12.142;2023-02-01T09:35:39;5.20;;;3.43;;
52608;SDS011;38503;48.544;12.142;2023-02-01T09:38:06;5.00;;;3.13;;
52608;SDS011;38503;48.544;12.142;2023-02-01T09:40:33;5.73;;;3.23;;
52608;SDS011;38503;48.544;12.142;2023-02-01T09:48:12;5.60;;;3.27;;
52608;SDS011;38503;48.544;12.142;2023-02-01T09:50:54;3.87;;;3.13;;
52608;SDS011;38503;48.544;12.142;2023-02-01T09:53:29;6.27;;;3.50;;
52608;SDS011;38503;48.544;12.142;2023-02-01T09:58:37;4.37;;;3.17;;
52608;SDS011;38503;48.544;12.142;2023-02-01T10:01:40;4.67;;;3.30;;
52608;SDS011;38503;48.544;12.142;2023-02-01T10:04:08;6.60;;;3.20;;
52608;SDS011;38503;48.544;12.142;2023-02-01T10:06:44;6.37;;;3.23;;
52608;SDS011;38503;48.544;12.142;2023-02-01T10:26:21;6.67;;;3.50;;
52608;SDS011;38503;48.544;12.142;2023-02-01T10:28:51;4.17;;;3.10;;
52608;SDS011;38503;48.544;12.142;2023-02-01T10:31:24;5.37;;;3.47;;
52608;SDS011;38503;48.544;12.142;2023-02-01T10:33:57;4.23;;;3.33;;
52608;SDS011;38503;48.544;12.142;2023-02-01T10:38:58;5.20;;;3.80;;
52608;SDS011;38503;48.544;12.142;2023-02-01T10:41:29;3.90;;;3.50;;
52608;SDS011;38503;48.544;12.142;2023-02-01T10:43:59;6.37;;;3.40;;
52608;SDS011;38503;48.544;12.142;2023-02-01T10:46:29;5.73;;;3.93;;
52608;SDS011;38503;48.544;12.142;2023-02-01T10:48:58;4.40;;;3.07;;
52608;SDS011;38503;48.544;12.142;2023-02-01T10:54:16;4.40;;;3.57;;
52608;SDS011;38503;48.544;12.142;2023-02-01T10:56:47;6.87;;;3.60;;
52608;SDS011;38503;48.544;12.142;2023-02-01T10:59:17;5.30;;;3.73;;
52608;SDS011;38503;48.544;12.142;2023-02-01T11:01:47;7.73;;;3.87;;
52608;SDS011;38503;48.544;12.142;2023-02-01T11:04:19;4.30;;;3.70;;
52608;SDS011;38503;48.544;12.142;2023-02-01T11:09:30;6.57;;;3.93;;
52608;SDS011;38503;48.544;12.142;2023-02-01T11:11:58;5.53;;;3.97;;
52608;SDS011;38503;48.544;12.142;2023-02-01T11:14:39;4.70;;;3.90;;
52608;SDS011;38503;48.544;12.142;2023-02-01T11:17:17;11.03;;;4.50;;
52608;SDS011;38503;48.544;12.142;2023-02-01T11:19:56;5.53;;;4.20;;
52608;SDS011;38503;48.544;12.142;2023-02-01T11:22:29;6.87;;;4.50;;
52608;SDS011;38503;48.544;12.142;2023-02-01T11:24:56;6.33;;;4.23;;
52608;SDS011;38503;48.544;12.142;2023-02-01T11:27:24;4.33;;;3.93;;
52608;SDS011;38503;48.544;12.142;2023-02-01T11:29:55;4.67;;;3.77;;
52608;SDS011;38503;48.544;12.142;2023-02-01T11:32:28;8.00;;;4.70;;
52608;SDS011;38503;48.544;12.142;2023-02-01T11:35:03;5.43;;;4.27;;
52608;SDS011;38503;48.544;12.142;2023-02-01T11:40:23;5.60;;;3.77;;
52608;SDS011;38503;48.544;12.142;2023-02-01T11:43:23;5.23;;;3.63;;
52608;SDS011;38503;48.544;12.142;2023-02-01T11:46:00;4.80;;;3.80;;
52608;SDS011;38503;48.544;12.142;2023-02-01T11:48:29;6.17;;;3.77;;
52608;SDS011;38503;48.544;12.142;2023-02-01T11:56:41;4.73;;;3.43;;
52608;SDS011;38503;48.544;12.142;2023-02-01T12:05:08;4.93;;;4.03;;
52608;SDS011;38503;48.544;12.142;2023-02-01T12:08:00;6.57;;;3.73;;
52608;SDS011;38503;48.544;12.142;2023-02-01T12:14:01;4.23;;;3.10;;
52608;SDS011;38503;48.544;12.142;2023-02-01T12:19:36;5.77;;;3.50;;
52608;SDS011;38503;48.544;12.142;2023-02-01T12:44:48;5.90;;;4.17;;
52608;SDS011;38503;48.544;12.142;2023-02-01T12:52:45;6.27;;;4.20;;
52608;SDS011;38503;48.544;12.142;2023-02-01T12:55:24;4.53;;;3.70;;
52608;SDS011;38503;48.544;12.142;2023-02-01T12:58:18;6.90;;;4.27;;
52608;SDS011;38503;48.544;12.142;2023-02-01T13:00:59;6.63;;;4.37;;
52608;SDS011;38503;48.544;12.142;2023-02-01T13:03:36;5.57;;;3.77;;
52608;SDS011;38503;48.544;12.142;2023-02-01T13:06:17;5.83;;;4.20;;
52608;SDS011;38503;48.544;12.142;2023-02-01T13:11:50;5.60;;;3.70;;
52608;SDS011;38503;48.544;12.142;2023-02-01T13:14:25;5.57;;;3.60;;
52608;SDS011;38503;48.544;12.142;2023-02-01T13:17:02;6.83;;;3.57;;
52608;SDS011;38503;48.544;12.142;2023-02-01T13:19:42;5.27;;;3.50;;
52608;SDS011;38503;48.544;12.142;2023-02-01T13:22:16;8.30;;;4.60;;
52608;SDS011;38503;48.544;12.142;2023-02-01T13:24:48;5.07;;;3.70;;
52608;SDS011;38503;48.544;12.142;2023-02-01T13:27:28;10.00;;;3.67;;
52608;SDS011;38503;48.544;12.142;2023-02-01T13:30:01;4.80;;;3.03;;
52608;SDS011;38503;48.544;12.142;2023-02-01T13:44:32;4.83;;;3.20;;
52608;SDS011;38503;48.544;12.142;2023-02-01T13:47:31;7.47;;;4.07;;
52608;SDS011;38503;48.544;12.142;2023-02-01T13:52:43;6.87;;;3.70;;
52608;SDS011;38503;48.544;12.142;2023-02-01T13:55:24;8.73;;;3.90;;
52608;SDS011;38503;48.544;12.142;2023-02-01T13:58:01;6.23;;;3.60;;
52608;SDS011;38503;48.544;12.142;2023-02-01T14:00:35;6.67;;;3.37;;
52608;SDS011;38503;48.544;12.142;2023-02-01T14:13:52;7.20;;;3.03;;
52608;SDS011;38503;48.544;12.142;2023-02-01T14:16:19;7.20;;;3.23;;
52608;SDS011;38503;48.544;12.142;2023-02-01T14:18:54;7.57;;;3.63;;
52608;SDS011;38503;48.544;12.142;2023-02-01T14:21:34;6.23;;;3.50;;
52608;SDS011;38503;48.544;12.142;2023-02-01T14:24:17;5.43;;;3.33;;
52608;SDS011;38503;48.544;12.142;2023-02-01T14:26:50;13.07;;;3.57;;
52608;SDS011;38503;48.544;12.142;2023-02-01T14:29:32;8.90;;;2.97;;
52608;SDS011;38503;48.544;12.142;2023-02-01T14:32:17;6.10;;;3.37;;
52608;SDS011;38503;48.544;12.142;2023-02-01T15:01:02;7.87;;;3.30;;
52608;SDS011;38503;48.544;12.142;2023-02-01T15:06:20;5.13;;;3.03;;
52608;SDS011;38503;48.544;12.142;2023-02-01T15:08:57;5.77;;;3.50;;
52608;SDS011;38503;48.544;12.142;2023-02-01T15:14:22;4.70;;;3.17;;
52608;SDS011;38503;48.544;12.142;2023-02-01T15:16:50;6.53;;;2.70;;
52608;SDS011;38503;48.544;12.142;2023-02-01T15:19:26;5.83;;;3.10;;
52608;SDS011;38503;48.544;12.142;2023-02-01T15:21:55;6.93;;;3.17;;
52608;SDS011;38503;48.544;12.142;2023-02-01T15:24:27;5.37;;;3.23;;
52608;SDS011;38503;48.544;12.142;2023-02-01T15:26:56;5.53;;;2.57;;
52608;SDS011;38503;48.544;12.142;2023-02-01T15:29:29;10.07;;;3.40;;
52608;SDS011;38503;48.544;12.142;2023-02-01T15:31:59;5.23;;;3.03;;
52608;SDS011;38503;48.544;12.142;2023-02-01T15:34:43;7.53;;;3.10;;
52608;SDS011;38503;48.544;12.142;2023-02-01T15:37:15;5.77;;;3.63;;
52608;SDS011;38503;48.544;12.142;2023-02-01T15:42:55;7.67;;;3.80;;
52608;SDS011;38503;48.544;12.142;2023-02-01T15:45:27;5.60;;;3.40;;
52608;SDS011;38503;48.544;12.142;2023-02-01T15:47:58;5.67;;;3.53;;
52608;SDS011;38503;48.544;12.142;2023-02-01T15:50:26;6.43;;;3.53;;
52608;SDS011;38503;48.544;12.142;2023-02-01T15:52:56;7.07;;;2.97;;
52608;SDS011;38503;48.544;12.142;2023-02-01T15:55:39;8.67;;;2.83;;
52608;SDS011;38503;48.544;12.142;2023-02-01T15:58:12;5.53;;;3.00;;
52608;SDS011;38503;48.544;12.142;2023-02-01T16:00:51;6.27;;;3.40;;
52608;SDS011;38503;48.544;12.142;2023-02-01T16:06:07;5.27;;;3.03;;
52608;SDS011;38503;48.544;12.142;2023-02-01T16:11:29;6.63;;;3.10;;
52608;SDS011;38503;48.544;12.142;2023-02-01T16:13:58;8.20;;;3.43;;
52608;SDS011;38503;48.544;12.142;2023-02-01T16:16:27;6.40;;;3.13;;
52608;SDS011;38503;48.544;12.142;2023-02-01T16:18:55;8.43;;;3.43;;
52608;SDS011;38503;48.544;12.142;2023-02-01T16:21:22;5.77;;;3.20;;
52608;SDS011;38503;48.544;12.142;2023-02-01T16:23:52;6.60;;;3.40;;
52608;SDS011;38503;48.544;12.142;2023-02-01T16:26:19;7.40;;;3.10;;
52608;SDS011;38503;48.544;12.142;2023-02-01T16:28:47;9.40;;;3.60;;
52608;SDS011;38503;48.544;12.142;2023-02-01T16:31:17;5.17;;;3.17;;
52608;SDS011;38503;48.544;12.142;2023-02-01T16:33:50;6.90;;;3.17;;
52608;SDS011;38503;48.544;12.142;2023-02-01T16:36:17;6.73;;;3.30;;
52608;SDS011;38503;48.544;12.142;2023-02-01T16:38:45;8.90;;;3.37;;
52608;SDS011;38503;48.544;12.142;2023-02-01T16:41:14;7.10;;;3.50;;
52608;SDS011;38503;48.544;12.142;2023-02-01T16:43:43;7.03;;;3.77;;
52608;SDS011;38503;48.544;12.142;2023-02-01T16:46:18;7.17;;;3.00;;
52608;SDS011;38503;48.544;12.142;2023-02-01T16:48:52;7.63;;;3.37;;
52608;SDS011;38503;48.544;12.142;2023-02-01T16:51:24;5.57;;;2.90;;
52608;SDS011;38503;48.544;12.142;2023-02-01T16:53:54;6.17;;;3.33;;
52608;SDS011;38503;48.544;12.142;2023-02-01T16:56:23;9.87;;;3.43;;
52608;SDS011;38503;48.544;12.142;2023-02-01T16:58:56;10.27;;;4.47;;
52608;SDS011;38503;48.544;12.142;2023-02-01T17:01:23;11.73;;;5.57;;
52608;SDS011;38503;48.544;12.142;2023-02-01T17:03:51;8.17;;;2.80;;
52608;SDS011;38503;48.544;12.142;2023-02-01T17:06:22;8.33;;;3.30;;
52608;SDS011;38503;48.544;12.142;2023-02-01T17:08:51;5.40;;;2.95;;
52608;SDS011;38503;48.544;12.142;2023-02-01T17:11:21;7.50;;;2.90;;
52608;SDS011;38503;48.544;12.142;2023-02-01T17:13:48;7.70;;;4.47;;
52608;SDS011;38503;48.544;12.142;2023-02-01T17:18:50;15.97;;;8.37;;
52608;SDS011;38503;48.544;12.142;2023-02-01T17:21:26;10.87;;;4.73;;
52608;SDS011;38503;48.544;12.142;2023-02-01T17:23:55;20.53;;;9.53;;
52608;SDS011;38503;48.544;12.142;2023-02-01T17:26:25;14.77;;;6.23;;
52608;SDS011;38503;48.544;12.142;2023-02-01T17:28:51;9.27;;;3.70;;
52608;SDS011;38503;48.544;12.142;2023-02-01T17:31:18;9.37;;;3.73;;
52608;SDS011;38503;48.544;12.142;2023-02-01T17:33:45;9.93;;;3.27;;
52608;SDS011;38503;48.544;12.142;2023-02-01T17:36:13;4.73;;;2.37;;
52608;SDS011;38503;48.544;12.142;2023-02-01T17:38:42;7.63;;;3.40;;
52608;SDS011;38503;48.544;12.142;2023-02-01T17:41:19;9.80;;;3.23;;
52608;SDS011;38503;48.544;12.142;2023-02-01T17:43:46;5.97;;;3.10;;
52608;SDS011;38503;48.544;12.142;2023-02-01T17:46:15;6.43;;;3.27;;
52608;SDS011;38503;48.544;12.142;2023-02-01T17:48:54;6.27;;;3.73;;
52608;SDS011;38503;48.544;12.142;2023-02-01T17:51:21;10.00;;;3.20;;
52608;SDS011;38503;48.544;12.142;2023-02-01T17:53:50;9.90;;;3.90;;
52608;SDS011;38503;48.544;12.142;2023-02-01T17:56:21;11.67;;;3.43;;
52608;SDS011;38503;48.544;12.142;2023-02-01T17:58:49;8.30;;;3.33;;
52608;SDS011;38503;48.544;12.142;2023-02-01T18:01:23;6.33;;;3.03;;